Westview Chinook — VG3278 — position and weather

sailwx.info

Track history (hours):
 
Tides and Currents Weather Stations Pressure Air Temp Water Temp Dewpoint Dewpoint Depression Visibility Wind Speed Wind Dir Waves Ship Positions

Westview Chinook

Last reported at 2018-Feb-17 16:41 UTC. Time now 2018-Feb-17 19:34 UTC.
Position N 49°12' W 123°06'.

Length 15 m.

Type: Tug. MMSI: 316005622.

Date/timePositionNaut miles runAvg speedWind from/ knotsBaromVisibWave heightAir tempDewpointWater temp
2018-Feb-17 16:41N 49°12' W 123°06'0 0.7
2018-Feb-17 16:30N 49°12' W 123°06'1 1.6
2018-Feb-17 15:59N 49°12' W 123°05'1 1.2
2018-Feb-17 15:30N 49°12' W 123°04'1 1.9
2018-Feb-17 15:00N 49°12' W 123°03'3 6.5
2018-Feb-17 14:30N 49°11' W 122°58'0 0.7
2018-Feb-17 14:00N 49°11' W 122°59'5 9.3
2018-Feb-17 13:30N 49°12' W 123°06'2 4.0
2018-Feb-17 13:00N 49°12' W 123°09'2 4.7
2018-Feb-17 12:30N 49°12' W 123°05'2 4.9
2018-Feb-17 12:00N 49°12' W 123°01'2 4.8
2018-Feb-17 11:29N 49°11' W 122°58'3 5.9
2018-Feb-17 11:00N 49°13' W 122°54'4 8.0
2018-Feb-17 10:30N 49°13' W 122°47'4 7.7
2018-Feb-17 10:00N 49°12' W 122°42'4 7.3
2018-Feb-17 09:30N 49°12' W 122°36'3 0.8
2018-Feb-17 06:10N 49°11' W 122°33'1 6.9
2018-Feb-17 06:00N 49°11' W 122°35'3 5.8
2018-Feb-17 05:29N 49°12' W 122°39'3 6.8
2018-Feb-17 05:00N 49°13' W 122°44'4 7.4
2018-Feb-17 04:30N 49°13' W 122°50'4 7.3
2018-Feb-17 04:00N 49°12' W 122°55'3 6.9
2018-Feb-17 03:30N 49°11' W 123°00'4 8.0
2018-Feb-17 03:00N 49°12' W 123°06'3 4.3
2018-Feb-17 02:23N 49°13' W 123°10'2 6.4
2018-Feb-17 02:00N 49°14' W 123°13'3 6.4
2018-Feb-17 01:30N 49°16' W 123°17'3 6.9
2018-Feb-17 01:00N 49°18' W 123°21'4 7.7
2018-Feb-17 00:29N 49°20' W 123°26'4 7.8
2018-Feb-16 23:57N 49°24' W 123°25'3 7.5
2018-Feb-16 23:30N 49°27' W 123°28'4 7.4
2018-Feb-16 23:00N 49°31' W 123°29'0 0.7
2018-Feb-16 22:30N 49°31' W 123°29'0 0.3
2018-Feb-16 22:00N 49°31' W 123°29'2 4.2
2018-Feb-16 21:30N 49°29' W 123°28'3 5.5
2018-Feb-16 21:00N 49°26' W 123°27'3 5.3
2018-Feb-16 20:28N 49°24' W 123°25'2 5.4
2018-Feb-16 20:00N 49°22' W 123°26'2 4.8
2018-Feb-16 19:30N 49°19' W 123°25'3 5.3
2018-Feb-16 19:00N 49°18' W 123°22'3 5.1
2018-Feb-16 18:30N 49°16' W 123°19'3 5.6
2018-Feb-16 17:59N 49°15' W 123°15'2 5.0
2018-Feb-16 17:30N 49°13' W 123°12'2 3.7
2018-Feb-16 17:00N 49°13' W 123°09'0 0.3
2018-Feb-16 16:30N 49°12' W 123°09'2 3.7
2018-Feb-16 15:59N 49°12' W 123°06'2 3.6
2018-Feb-16 15:29N 49°12' W 123°09'1 1.4
2018-Feb-16 15:00N 49°12' W 123°08'3 5.2
2018-Feb-16 14:30N 49°12' W 123°04'3 5.9
2018-Feb-16 14:00N 49°11' W 122°60'3 5.9
2018-Feb-16 13:28N 49°11' W 122°55'4 8.5
2018-Feb-16 13:00N 49°09' W 123°00'0 0.6
2018-Feb-16 12:28N 49°09' W 123°01'4 8.8
2018-Feb-16 12:00N 49°07' W 123°06'4 8.4
2018-Feb-16 11:30N 49°07' W 123°12'4 8.3
2018-Feb-16 11:00N 49°06' W 123°18'5 9.0
2018-Feb-16 10:29N 49°03' W 123°24'4 8.4
2018-Feb-16 10:00N 48°59' W 123°22'5 9.4
2018-Feb-16 09:29N 48°55' W 123°18'4 7.7
2018-Feb-16 09:00N 48°52' W 123°21'3 6.1
2018-Feb-16 08:31N 48°48' W 123°21'4 8.2
2018-Feb-16 08:01N 48°44' W 123°21'4 8.0
2018-Feb-16 07:30N 48°40' W 123°21'3 6.5
2018-Feb-16 07:01N 48°37' W 123°21'1 1.9
2018-Feb-16 06:30N 48°38' W 123°21'611.4
2018-Feb-16 06:00N 48°44' W 123°21'510.7
2018-Feb-16 05:30N 48°49' W 123°21'5 9.1
2018-Feb-16 05:00N 48°53' W 123°18'510.6
2018-Feb-16 04:29N 48°59' W 123°18'510.8
2018-Feb-16 03:59N 49°04' W 123°19'510.4
2018-Feb-16 03:29N 49°09' W 123°19'5 9.7
2018-Feb-16 02:59N 49°14' W 123°17'3 6.6
2018-Feb-16 02:30N 49°13' W 123°13'4 8.9
2018-Feb-16 02:01N 49°12' W 123°06'0 0.3
2018-Feb-16 01:30N 49°12' W 123°06'1 1.8
2018-Feb-16 01:00N 49°12' W 123°05'1 2.8
2018-Feb-16 00:30N 49°12' W 123°07'1 3.0
2018-Feb-16 00:00N 49°12' W 123°09'3 5.5
2018-Feb-15 23:30N 49°14' W 123°13'3 6.1
2018-Feb-15 22:59N 49°16' W 123°17'3 7.1
2018-Feb-15 22:30N 49°18' W 123°21'4 7.6
2018-Feb-15 22:01N 49°20' W 123°26'4 7.8
2018-Feb-15 21:27N 49°24' W 123°25'3 7.3
2018-Feb-15 21:00N 49°27' W 123°28'4 7.5
2018-Feb-15 20:30N 49°31' W 123°28'1 1.5
2018-Feb-15 20:00N 49°31' W 123°29'1 2.6
2018-Feb-15 19:29N 49°30' W 123°28'4 7.6
2018-Feb-15 19:00N 49°27' W 123°27'4 6.5
2018-Feb-15 18:22N 49°23' W 123°26'2 6.8
2018-Feb-15 18:00N 49°20' W 123°26'4 7.3
2018-Feb-15 17:30N 49°18' W 123°21'4 7.1
2018-Feb-15 17:00N 49°16' W 123°17'4 7.1
2018-Feb-15 16:30N 49°13' W 123°13'3 5.2
2018-Feb-15 15:59N 49°12' W 123°09'2 4.2
2018-Feb-15 15:30N 49°12' W 123°06'0 0.0
2018-Feb-15 14:59N 49°12' W 123°06'0 0.0
2018-Feb-15 14:30N 49°12' W 123°06'0 0.0
2018-Feb-15 14:00N 49°12' W 123°06'1 1.7
2018-Feb-15 13:30N 49°12' W 123°05'1 1.1
2018-Feb-15 12:58N 49°12' W 123°04'1 1.4
2018-Feb-15 12:30N 49°12' W 123°05'1 2.7
2018-Feb-15 12:00N 49°12' W 123°07'1 2.7
2018-Feb-15 11:30N 49°12' W 123°09'1 2.4
2018-Feb-15 11:00N 49°13' W 123°11'1 2.7
2018-Feb-15 10:29N 49°13' W 123°13'1 2.1
2018-Feb-15 10:00N 49°14' W 123°14'2 3.1
2018-Feb-15 09:29N 49°15' W 123°16'2 3.6
2018-Feb-15 09:00N 49°16' W 123°18'1 2.5
2018-Feb-15 08:29N 49°16' W 123°20'1 2.7
2018-Feb-15 08:00N 49°16' W 123°22'1 2.4
2018-Feb-15 07:30N 49°17' W 123°24'1 2.2
2018-Feb-15 07:00N 49°18' W 123°25'1 2.3
2018-Feb-15 06:30N 49°18' W 123°24'1 2.6
2018-Feb-15 06:00N 49°19' W 123°22'1 1.4
2018-Feb-15 05:30N 49°20' W 123°22'4 7.8
2018-Feb-15 05:00N 49°16' W 123°18'610.8
2018-Feb-15 04:28N 49°13' W 123°11'4 9.5
2018-Feb-15 04:00N 49°12' W 123°04'0 0.1
2018-Feb-15 03:30N 49°12' W 123°04'2 3.5
2018-Feb-15 03:00N 49°12' W 123°07'1 1.7
2018-Feb-15 02:30N 49°12' W 123°08'0 0.1
2018-Feb-15 02:00N 49°12' W 123°08'0 0.0
2018-Feb-15 01:30N 49°12' W 123°08'1 1.7
2018-Feb-15 00:57N 49°12' W 123°09'2 4.8
2018-Feb-15 00:30N 49°13' W 123°12'3 6.5
2018-Feb-15 00:00N 49°15' W 123°16'3 6.2
2018-Feb-14 23:30N 49°17' W 123°20'4 7.8
2018-Feb-14 23:00N 49°19' W 123°25'4 6.9
2018-Feb-14 22:29N 49°23' W 123°26'3 6.9
2018-Feb-14 22:00N 49°26' W 123°27'4 7.2
2018-Feb-14 21:30N 49°30' W 123°28'2 3.7
2018-Feb-14 21:00N 49°31' W 123°29'0 0.7
2018-Feb-14 20:30N 49°31' W 123°29'0 0.9
2018-Feb-14 20:00N 49°31' W 123°28'3 5.0
2018-Feb-14 19:30N 49°28' W 123°28'3 5.7
2018-Feb-14 19:00N 49°26' W 123°27'3 5.3
2018-Feb-14 18:30N 49°25' W 123°23'2 4.7
2018-Feb-14 17:59N 49°25' W 123°19'2 4.0
2018-Feb-14 17:29N 49°23' W 123°18'2 4.8
2018-Feb-14 17:00N 49°21' W 123°18'2 5.0
2018-Feb-14 16:30N 49°19' W 123°18'2 4.9
2018-Feb-14 16:00N 49°16' W 123°18'3 5.0
2018-Feb-14 15:30N 49°14' W 123°15'2 4.8
2018-Feb-14 15:00N 49°13' W 123°12'2 4.1
2018-Feb-14 14:30N 49°12' W 123°09'2 3.8
2018-Feb-14 14:00N 49°12' W 123°06'2 3.5
2018-Feb-14 13:30N 49°12' W 123°03'2 3.5
2018-Feb-14 13:00N 49°12' W 123°01'2 4.3
2018-Feb-14 12:30N 49°11' W 122°58'2 3.9
2018-Feb-14 12:00N 49°12' W 122°55'2 4.6
2018-Feb-14 11:30N 49°13' W 122°52'3 5.5
2018-Feb-14 11:00N 49°13' W 122°48'3 5.4
2018-Feb-14 10:30N 49°13' W 122°43'3 5.6
2018-Feb-14 09:58N 49°12' W 122°39'3 5.1
2018-Feb-14 09:28N 49°11' W 122°35'7 6.0
2018-Feb-14 08:12N 49°09' W 122°24'0 0.7
2018-Feb-14 07:43N 49°09' W 122°24'6 3.5
2018-Feb-14 05:57N 49°11' W 122°33'3 6.5
2018-Feb-14 05:29N 49°13' W 122°37'3 6.4
2018-Feb-14 05:00N 49°12' W 122°41'3 6.6
2018-Feb-14 04:30N 49°13' W 122°46'3 6.2
2018-Feb-14 04:00N 49°13' W 122°51'2 4.5
2018-Feb-14 03:30N 49°12' W 122°54'4 7.4
2018-Feb-14 03:00N 49°11' W 122°59'4 7.4
2018-Feb-14 02:29N 49°12' W 123°05'1 1.6
2018-Feb-14 02:00N 49°12' W 123°06'  
2018-Feb-10 12:44N 49°12' W 123°06'0 1.0
2018-Feb-10 12:30N 49°12' W 123°06'2 3.1
2018-Feb-10 11:59N 49°12' W 123°09'2 4.7
2018-Feb-10 11:30N 49°12' W 123°05'0 0.8
2018-Feb-10 11:00N 49°12' W 123°05'0 0.7
2018-Feb-10 10:30N 49°12' W 123°05'2 4.2
2018-Feb-10 10:00N 49°12' W 123°08'2 4.4
2018-Feb-10 09:30N 49°13' W 123°11'2 3.4
2018-Feb-10 09:00N 49°14' W 123°13'2 3.3
2018-Feb-10 08:30N 49°15' W 123°15'2 3.0
2018-Feb-10 08:00N 49°16' W 123°17'1 2.1
2018-Feb-10 07:30N 49°16' W 123°18'1 2.4
2018-Feb-10 07:00N 49°17' W 123°20'1 2.3
2018-Feb-10 06:30N 49°17' W 123°21'1 2.3
2018-Feb-10 05:58N 49°18' W 123°23'1 2.2
2018-Feb-10 05:30N 49°18' W 123°24'1 2.0
2018-Feb-10 05:00N 49°19' W 123°26'1 1.8
2018-Feb-10 04:30N 49°19' W 123°25'510.1
2018-Feb-10 04:00N 49°16' W 123°18'2 4.0
2018-Feb-10 03:30N 49°15' W 123°15'3 5.9
2018-Feb-10 02:59N 49°13' W 123°12'4 7.8
2018-Feb-10 02:30N 49°12' W 123°06'0 0.0
2018-Feb-10 02:00N 49°12' W 123°06'4 0.1
2018-Feb-08 01:30N 49°13' W 123°11'3 5.6
2018-Feb-08 01:00N 49°15' W 123°15'3 6.2
2018-Feb-08 00:30N 49°17' W 123°19'4 7.1
2018-Feb-08 00:00N 49°19' W 123°23'4 6.3
2018-Feb-07 23:24N 49°22' W 123°26'3 7.4
2018-Feb-07 23:01N 49°25' W 123°26'4 7.7
2018-Feb-07 22:31N 49°28' W 123°28'3 5.7
2018-Feb-07 22:00N 49°31' W 123°29'0 0.6
2018-Feb-07 21:29N 49°32' W 123°29'  
Track history (hours):
 
Tides and Currents Weather Stations Pressure Air Temp Water Temp Dewpoint Dewpoint Depression Visibility Wind Speed Wind Dir Waves Ship Positions

Westview Chinook

Last reported at 2018-Feb-17 16:41 UTC. Time now 2018-Feb-17 19:34 UTC.
Position N 49°12' W 123°06'.

Length 15 m.

Type: Tug. MMSI: 316005622.

Date/timePositionNaut miles runAvg speedWind from/ knotsBaromVisibWave heightAir tempDewpointWater temp
2018-Feb-17 16:41N 49°12' W 123°06'0 0.7
2018-Feb-17 16:30N 49°12' W 123°06'1 1.6
2018-Feb-17 15:59N 49°12' W 123°05'1 1.2
2018-Feb-17 15:30N 49°12' W 123°04'1 1.9
2018-Feb-17 15:00N 49°12' W 123°03'3 6.5
2018-Feb-17 14:30N 49°11' W 122°58'0 0.7
2018-Feb-17 14:00N 49°11' W 122°59'5 9.3
2018-Feb-17 13:30N 49°12' W 123°06'2 4.0
2018-Feb-17 13:00N 49°12' W 123°09'2 4.7
2018-Feb-17 12:30N 49°12' W 123°05'2 4.9
2018-Feb-17 12:00N 49°12' W 123°01'2 4.8
2018-Feb-17 11:29N 49°11' W 122°58'3 5.9
2018-Feb-17 11:00N 49°13' W 122°54'4 8.0
2018-Feb-17 10:30N 49°13' W 122°47'4 7.7
2018-Feb-17 10:00N 49°12' W 122°42'4 7.3
2018-Feb-17 09:30N 49°12' W 122°36'3 0.8
2018-Feb-17 06:10N 49°11' W 122°33'1 6.9
2018-Feb-17 06:00N 49°11' W 122°35'3 5.8
2018-Feb-17 05:29N 49°12' W 122°39'3 6.8
2018-Feb-17 05:00N 49°13' W 122°44'4 7.4
2018-Feb-17 04:30N 49°13' W 122°50'4 7.3
2018-Feb-17 04:00N 49°12' W 122°55'3 6.9
2018-Feb-17 03:30N 49°11' W 123°00'4 8.0
2018-Feb-17 03:00N 49°12' W 123°06'3 4.3
2018-Feb-17 02:23N 49°13' W 123°10'2 6.4
2018-Feb-17 02:00N 49°14' W 123°13'3 6.4
2018-Feb-17 01:30N 49°16' W 123°17'3 6.9
2018-Feb-17 01:00N 49°18' W 123°21'4 7.7
2018-Feb-17 00:29N 49°20' W 123°26'4 7.8
2018-Feb-16 23:57N 49°24' W 123°25'3 7.5
2018-Feb-16 23:30N 49°27' W 123°28'4 7.4
2018-Feb-16 23:00N 49°31' W 123°29'0 0.7
2018-Feb-16 22:30N 49°31' W 123°29'0 0.3
2018-Feb-16 22:00N 49°31' W 123°29'2 4.2
2018-Feb-16 21:30N 49°29' W 123°28'3 5.5
2018-Feb-16 21:00N 49°26' W 123°27'3 5.3
2018-Feb-16 20:28N 49°24' W 123°25'2 5.4
2018-Feb-16 20:00N 49°22' W 123°26'2 4.8
2018-Feb-16 19:30N 49°19' W 123°25'3 5.3
2018-Feb-16 19:00N 49°18' W 123°22'3 5.1
2018-Feb-16 18:30N 49°16' W 123°19'3 5.6
2018-Feb-16 17:59N 49°15' W 123°15'2 5.0
2018-Feb-16 17:30N 49°13' W 123°12'2 3.7
2018-Feb-16 17:00N 49°13' W 123°09'0 0.3
2018-Feb-16 16:30N 49°12' W 123°09'2 3.7
2018-Feb-16 15:59N 49°12' W 123°06'2 3.6
2018-Feb-16 15:29N 49°12' W 123°09'1 1.4
2018-Feb-16 15:00N 49°12' W 123°08'3 5.2
2018-Feb-16 14:30N 49°12' W 123°04'3 5.9
2018-Feb-16 14:00N 49°11' W 122°60'3 5.9
2018-Feb-16 13:28N 49°11' W 122°55'4 8.5
2018-Feb-16 13:00N 49°09' W 123°00'0 0.6
2018-Feb-16 12:28N 49°09' W 123°01'4 8.8
2018-Feb-16 12:00N 49°07' W 123°06'4 8.4
2018-Feb-16 11:30N 49°07' W 123°12'4 8.3
2018-Feb-16 11:00N 49°06' W 123°18'5 9.0
2018-Feb-16 10:29N 49°03' W 123°24'4 8.4
2018-Feb-16 10:00N 48°59' W 123°22'5 9.4
2018-Feb-16 09:29N 48°55' W 123°18'4 7.7
2018-Feb-16 09:00N 48°52' W 123°21'3 6.1
2018-Feb-16 08:31N 48°48' W 123°21'4 8.2
2018-Feb-16 08:01N 48°44' W 123°21'4 8.0
2018-Feb-16 07:30N 48°40' W 123°21'3 6.5
2018-Feb-16 07:01N 48°37' W 123°21'1 1.9
2018-Feb-16 06:30N 48°38' W 123°21'611.4
2018-Feb-16 06:00N 48°44' W 123°21'510.7
2018-Feb-16 05:30N 48°49' W 123°21'5 9.1
2018-Feb-16 05:00N 48°53' W 123°18'510.6
2018-Feb-16 04:29N 48°59' W 123°18'510.8
2018-Feb-16 03:59N 49°04' W 123°19'510.4
2018-Feb-16 03:29N 49°09' W 123°19'5 9.7
2018-Feb-16 02:59N 49°14' W 123°17'3 6.6
2018-Feb-16 02:30N 49°13' W 123°13'4 8.9
2018-Feb-16 02:01N 49°12' W 123°06'0 0.3
2018-Feb-16 01:30N 49°12' W 123°06'1 1.8
2018-Feb-16 01:00N 49°12' W 123°05'1 2.8
2018-Feb-16 00:30N 49°12' W 123°07'1 3.0
2018-Feb-16 00:00N 49°12' W 123°09'3 5.5
2018-Feb-15 23:30N 49°14' W 123°13'3 6.1
2018-Feb-15 22:59N 49°16' W 123°17'3 7.1
2018-Feb-15 22:30N 49°18' W 123°21'4 7.6
2018-Feb-15 22:01N 49°20' W 123°26'4 7.8
2018-Feb-15 21:27N 49°24' W 123°25'3 7.3
2018-Feb-15 21:00N 49°27' W 123°28'4 7.5
2018-Feb-15 20:30N 49°31' W 123°28'1 1.5
2018-Feb-15 20:00N 49°31' W 123°29'1 2.6
2018-Feb-15 19:29N 49°30' W 123°28'4 7.6
2018-Feb-15 19:00N 49°27' W 123°27'4 6.5
2018-Feb-15 18:22N 49°23' W 123°26'2 6.8
2018-Feb-15 18:00N 49°20' W 123°26'4 7.3
2018-Feb-15 17:30N 49°18' W 123°21'4 7.1
2018-Feb-15 17:00N 49°16' W 123°17'4 7.1
2018-Feb-15 16:30N 49°13' W 123°13'3 5.2
2018-Feb-15 15:59N 49°12' W 123°09'2 4.2
2018-Feb-15 15:30N 49°12' W 123°06'0 0.0
2018-Feb-15 14:59N 49°12' W 123°06'0 0.0
2018-Feb-15 14:30N 49°12' W 123°06'0 0.0
2018-Feb-15 14:00N 49°12' W 123°06'1 1.7
2018-Feb-15 13:30N 49°12' W 123°05'1 1.1
2018-Feb-15 12:58N 49°12' W 123°04'1 1.4
2018-Feb-15 12:30N 49°12' W 123°05'1 2.7
2018-Feb-15 12:00N 49°12' W 123°07'1 2.7
2018-Feb-15 11:30N 49°12' W 123°09'1 2.4
2018-Feb-15 11:00N 49°13' W 123°11'1 2.7
2018-Feb-15 10:29N 49°13' W 123°13'1 2.1
2018-Feb-15 10:00N 49°14' W 123°14'2 3.1
2018-Feb-15 09:29N 49°15' W 123°16'2 3.6
2018-Feb-15 09:00N 49°16' W 123°18'1 2.5
2018-Feb-15 08:29N 49°16' W 123°20'1 2.7
2018-Feb-15 08:00N 49°16' W 123°22'1 2.4
2018-Feb-15 07:30N 49°17' W 123°24'1 2.2
2018-Feb-15 07:00N 49°18' W 123°25'1 2.3
2018-Feb-15 06:30N 49°18' W 123°24'1 2.6
2018-Feb-15 06:00N 49°19' W 123°22'1 1.4
2018-Feb-15 05:30N 49°20' W 123°22'4 7.8
2018-Feb-15 05:00N 49°16' W 123°18'610.8
2018-Feb-15 04:28N 49°13' W 123°11'4 9.5
2018-Feb-15 04:00N 49°12' W 123°04'0 0.1
2018-Feb-15 03:30N 49°12' W 123°04'2 3.5
2018-Feb-15 03:00N 49°12' W 123°07'1 1.7
2018-Feb-15 02:30N 49°12' W 123°08'0 0.1
2018-Feb-15 02:00N 49°12' W 123°08'0 0.0
2018-Feb-15 01:30N 49°12' W 123°08'1 1.7
2018-Feb-15 00:57N 49°12' W 123°09'2 4.8
2018-Feb-15 00:30N 49°13' W 123°12'3 6.5
2018-Feb-15 00:00N 49°15' W 123°16'3 6.2
2018-Feb-14 23:30N 49°17' W 123°20'4 7.8
2018-Feb-14 23:00N 49°19' W 123°25'4 6.9
2018-Feb-14 22:29N 49°23' W 123°26'3 6.9
2018-Feb-14 22:00N 49°26' W 123°27'4 7.2
2018-Feb-14 21:30N 49°30' W 123°28'2 3.7
2018-Feb-14 21:00N 49°31' W 123°29'0 0.7
2018-Feb-14 20:30N 49°31' W 123°29'0 0.9
2018-Feb-14 20:00N 49°31' W 123°28'3 5.0
2018-Feb-14 19:30N 49°28' W 123°28'3 5.7
2018-Feb-14 19:00N 49°26' W 123°27'3 5.3
2018-Feb-14 18:30N 49°25' W 123°23'2 4.7
2018-Feb-14 17:59N 49°25' W 123°19'2 4.0
2018-Feb-14 17:29N 49°23' W 123°18'2 4.8
2018-Feb-14 17:00N 49°21' W 123°18'2 5.0
2018-Feb-14 16:30N 49°19' W 123°18'2 4.9
2018-Feb-14 16:00N 49°16' W 123°18'3 5.0
2018-Feb-14 15:30N 49°14' W 123°15'2 4.8
2018-Feb-14 15:00N 49°13' W 123°12'2 4.1
2018-Feb-14 14:30N 49°12' W 123°09'2 3.8
2018-Feb-14 14:00N 49°12' W 123°06'2 3.5
2018-Feb-14 13:30N 49°12' W 123°03'2 3.5
2018-Feb-14 13:00N 49°12' W 123°01'2 4.3
2018-Feb-14 12:30N 49°11' W 122°58'2 3.9
2018-Feb-14 12:00N 49°12' W 122°55'2 4.6
2018-Feb-14 11:30N 49°13' W 122°52'3 5.5
2018-Feb-14 11:00N 49°13' W 122°48'3 5.4
2018-Feb-14 10:30N 49°13' W 122°43'3 5.6
2018-Feb-14 09:58N 49°12' W 122°39'3 5.1
2018-Feb-14 09:28N 49°11' W 122°35'7 6.0
2018-Feb-14 08:12N 49°09' W 122°24'0 0.7
2018-Feb-14 07:43N 49°09' W 122°24'6 3.5
2018-Feb-14 05:57N 49°11' W 122°33'3 6.5
2018-Feb-14 05:29N 49°13' W 122°37'3 6.4
2018-Feb-14 05:00N 49°12' W 122°41'3 6.6
2018-Feb-14 04:30N 49°13' W 122°46'3 6.2
2018-Feb-14 04:00N 49°13' W 122°51'2 4.5
2018-Feb-14 03:30N 49°12' W 122°54'4 7.4
2018-Feb-14 03:00N 49°11' W 122°59'4 7.4
2018-Feb-14 02:29N 49°12' W 123°05'1 1.6
2018-Feb-14 02:00N 49°12' W 123°06'  
2018-Feb-10 12:44N 49°12' W 123°06'0 1.0
2018-Feb-10 12:30N 49°12' W 123°06'2 3.1
2018-Feb-10 11:59N 49°12' W 123°09'2 4.7
2018-Feb-10 11:30N 49°12' W 123°05'0 0.8
2018-Feb-10 11:00N 49°12' W 123°05'0 0.7
2018-Feb-10 10:30N 49°12' W 123°05'2 4.2
2018-Feb-10 10:00N 49°12' W 123°08'2 4.4
2018-Feb-10 09:30N 49°13' W 123°11'2 3.4
2018-Feb-10 09:00N 49°14' W 123°13'2 3.3
2018-Feb-10 08:30N 49°15' W 123°15'2 3.0
2018-Feb-10 08:00N 49°16' W 123°17'1 2.1
2018-Feb-10 07:30N 49°16' W 123°18'1 2.4
2018-Feb-10 07:00N 49°17' W 123°20'1 2.3
2018-Feb-10 06:30N 49°17' W 123°21'1 2.3
2018-Feb-10 05:58N 49°18' W 123°23'1 2.2
2018-Feb-10 05:30N 49°18' W 123°24'1 2.0
2018-Feb-10 05:00N 49°19' W 123°26'1 1.8
2018-Feb-10 04:30N 49°19' W 123°25'510.1
2018-Feb-10 04:00N 49°16' W 123°18'2 4.0
2018-Feb-10 03:30N 49°15' W 123°15'3 5.9
2018-Feb-10 02:59N 49°13' W 123°12'4 7.8
2018-Feb-10 02:30N 49°12' W 123°06'0 0.0
2018-Feb-10 02:00N 49°12' W 123°06'4 0.1
2018-Feb-08 01:30N 49°13' W 123°11'3 5.6
2018-Feb-08 01:00N 49°15' W 123°15'3 6.2
2018-Feb-08 00:30N 49°17' W 123°19'4 7.1
2018-Feb-08 00:00N 49°19' W 123°23'4 6.3
2018-Feb-07 23:24N 49°22' W 123°26'3 7.4
2018-Feb-07 23:01N 49°25' W 123°26'4 7.7
2018-Feb-07 22:31N 49°28' W 123°28'3 5.7
2018-Feb-07 22:00N 49°31' W 123°29'0 0.6
2018-Feb-07 21:29N 49°32' W 123°29'  

Dump ship's entire track history